sensor_id;sensor_type;location;lat;lon;timestamp;temperature;humidity
32446;DHT22;18899;50.748;7.102;2024-01-06T00:01:30;8.20;99.90
32446;DHT22;18899;50.748;7.102;2024-01-06T00:03:56;8.20;99.90
32446;DHT22;18899;50.748;7.102;2024-01-06T00:06:21;8.20;99.90
32446;DHT22;18899;50.748;7.102;2024-01-06T00:08:47;8.20;99.90
32446;DHT22;18899;50.748;7.102;2024-01-06T00:11:19;8.20;99.90
32446;DHT22;18899;50.748;7.102;2024-01-06T00:13:45;8.30;99.90
32446;DHT22;18899;50.748;7.102;2024-01-06T00:16:10;8.20;99.90
32446;DHT22;18899;50.748;7.102;2024-01-06T00:18:36;8.20;99.90
32446;DHT22;18899;50.748;7.102;2024-01-06T00:21:01;8.30;99.90
32446;DHT22;18899;50.748;7.102;2024-01-06T00:23:27;8.30;99.90
32446;DHT22;18899;50.748;7.102;2024-01-06T00:25:52;8.30;99.90
32446;DHT22;18899;50.748;7.102;2024-01-06T00:28:18;8.30;99.90
32446;DHT22;18899;50.748;7.102;2024-01-06T00:30:43;8.30;99.90
32446;DHT22;18899;50.748;7.102;2024-01-06T00:33:09;8.30;99.90
32446;DHT22;18899;50.748;7.102;2024-01-06T00:35:34;8.30;99.90
32446;DHT22;18899;50.748;7.102;2024-01-06T00:38:00;8.40;99.90
32446;DHT22;18899;50.748;7.102;2024-01-06T00:40:26;8.40;99.90
32446;DHT22;18899;50.748;7.102;2024-01-06T00:42:51;8.40;99.90
32446;DHT22;18899;50.748;7.102;2024-01-06T00:45:17;8.40;99.90
32446;DHT22;18899;50.748;7.102;2024-01-06T00:47:43;8.40;99.90
32446;DHT22;18899;50.748;7.102;2024-01-06T00:50:08;8.40;99.90
32446;DHT22;18899;50.748;7.102;2024-01-06T00:52:34;8.40;99.90
32446;DHT22;18899;50.748;7.102;2024-01-06T00:54:59;8.40;99.90
32446;DHT22;18899;50.748;7.102;2024-01-06T00:57:25;8.40;99.90
32446;DHT22;18899;50.748;7.102;2024-01-06T00:59:51;8.30;99.90
32446;DHT22;18899;50.748;7.102;2024-01-06T01:02:16;8.40;99.90
32446;DHT22;18899;50.748;7.102;2024-01-06T01:04:42;8.30;99.90
32446;DHT22;18899;50.748;7.102;2024-01-06T01:07:07;8.30;99.90
32446;DHT22;18899;50.748;7.102;2024-01-06T01:09:33;8.40;99.90
32446;DHT22;18899;50.748;7.102;2024-01-06T01:11:59;8.40;99.90
32446;DHT22;18899;50.748;7.102;2024-01-06T01:14:25;8.40;99.90
32446;DHT22;18899;50.748;7.102;2024-01-06T01:16:51;8.40;99.90
32446;DHT22;18899;50.748;7.102;2024-01-06T01:19:16;8.40;99.90
32446;DHT22;18899;50.748;7.102;2024-01-06T01:21:42;8.40;99.90
32446;DHT22;18899;50.748;7.102;2024-01-06T01:24:07;8.40;99.90
32446;DHT22;18899;50.748;7.102;2024-01-06T01:26:33;8.30;99.90
32446;DHT22;18899;50.748;7.102;2024-01-06T01:28:58;8.40;99.90
32446;DHT22;18899;50.748;7.102;2024-01-06T01:31:24;8.40;99.90
32446;DHT22;18899;50.748;7.102;2024-01-06T01:33:49;8.40;99.90
32446;DHT22;18899;50.748;7.102;2024-01-06T01:36:15;8.40;99.90
32446;DHT22;18899;50.748;7.102;2024-01-06T01:38:40;8.40;99.90
32446;DHT22;18899;50.748;7.102;2024-01-06T01:41:06;8.40;99.90
32446;DHT22;18899;50.748;7.102;2024-01-06T01:43:31;8.40;99.90
32446;DHT22;18899;50.748;7.102;2024-01-06T01:45:57;8.40;99.90
32446;DHT22;18899;50.748;7.102;2024-01-06T01:48:23;8.50;99.90
32446;DHT22;18899;50.748;7.102;2024-01-06T01:50:50;8.50;99.90
32446;DHT22;18899;50.748;7.102;2024-01-06T01:53:16;8.50;99.90
32446;DHT22;18899;50.748;7.102;2024-01-06T01:55:42;8.40;99.90
32446;DHT22;18899;50.748;7.102;2024-01-06T01:58:10;8.40;99.90
32446;DHT22;18899;50.748;7.102;2024-01-06T02:00:37;8.40;99.90
32446;DHT22;18899;50.748;7.102;2024-01-06T02:03:04;8.30;99.90
32446;DHT22;18899;50.748;7.102;2024-01-06T02:05:30;8.30;99.90
32446;DHT22;18899;50.748;7.102;2024-01-06T02:07:56;8.30;99.90
32446;DHT22;18899;50.748;7.102;2024-01-06T02:10:22;8.30;99.90
32446;DHT22;18899;50.748;7.102;2024-01-06T02:12:48;8.30;99.90
32446;DHT22;18899;50.748;7.102;2024-01-06T02:15:14;8.20;99.90
32446;DHT22;18899;50.748;7.102;2024-01-06T02:17:40;8.40;99.90
32446;DHT22;18899;50.748;7.102;2024-01-06T02:20:06;8.30;99.90
32446;DHT22;18899;50.748;7.102;2024-01-06T02:22:34;8.30;99.90
32446;DHT22;18899;50.748;7.102;2024-01-06T02:24:59;8.30;99.90
32446;DHT22;18899;50.748;7.102;2024-01-06T02:27:25;8.20;99.90
32446;DHT22;18899;50.748;7.102;2024-01-06T02:29:51;8.20;99.90
32446;DHT22;18899;50.748;7.102;2024-01-06T02:32:16;8.20;99.90
32446;DHT22;18899;50.748;7.102;2024-01-06T02:34:42;8.20;99.90
32446;DHT22;18899;50.748;7.102;2024-01-06T02:37:07;8.10;99.90
32446;DHT22;18899;50.748;7.102;2024-01-06T02:39:33;8.20;99.90
32446;DHT22;18899;50.748;7.102;2024-01-06T02:41:58;8.20;99.90
32446;DHT22;18899;50.748;7.102;2024-01-06T02:44:24;8.20;99.90
32446;DHT22;18899;50.748;7.102;2024-01-06T02:46:49;8.30;99.90
32446;DHT22;18899;50.748;7.102;2024-01-06T02:49:15;8.30;99.90
32446;DHT22;18899;50.748;7.102;2024-01-06T02:51:40;8.30;99.90
32446;DHT22;18899;50.748;7.102;2024-01-06T02:54:06;8.20;99.90
32446;DHT22;18899;50.748;7.102;2024-01-06T02:56:31;8.20;99.90
32446;DHT22;18899;50.748;7.102;2024-01-06T02:58:57;8.20;99.90
32446;DHT22;18899;50.748;7.102;2024-01-06T03:01:22;8.20;99.90
32446;DHT22;18899;50.748;7.102;2024-01-06T03:03:48;8.20;99.90
32446;DHT22;18899;50.748;7.102;2024-01-06T03:06:13;8.10;99.90
32446;DHT22;18899;50.748;7.102;2024-01-06T03:08:39;8.10;99.90
32446;DHT22;18899;50.748;7.102;2024-01-06T03:11:04;8.10;99.90
32446;DHT22;18899;50.748;7.102;2024-01-06T03:13:31;8.00;99.90
32446;DHT22;18899;50.748;7.102;2024-01-06T03:15:56;8.00;99.90
32446;DHT22;18899;50.748;7.102;2024-01-06T03:18:22;7.90;99.90
32446;DHT22;18899;50.748;7.102;2024-01-06T03:20:47;7.90;99.90
32446;DHT22;18899;50.748;7.102;2024-01-06T03:23:12;7.80;99.90
32446;DHT22;18899;50.748;7.102;2024-01-06T03:25:38;7.80;99.90
32446;DHT22;18899;50.748;7.102;2024-01-06T03:28:04;7.80;99.90
32446;DHT22;18899;50.748;7.102;2024-01-06T03:30:29;7.70;99.90
32446;DHT22;18899;50.748;7.102;2024-01-06T03:32:55;7.70;99.90
32446;DHT22;18899;50.748;7.102;2024-01-06T03:35:20;7.80;99.90
32446;DHT22;18899;50.748;7.102;2024-01-06T03:37:46;7.80;99.90
32446;DHT22;18899;50.748;7.102;2024-01-06T03:40:12;7.80;99.90
32446;DHT22;18899;50.748;7.102;2024-01-06T03:42:37;7.70;99.90
32446;DHT22;18899;50.748;7.102;2024-01-06T03:45:03;7.70;99.90
32446;DHT22;18899;50.748;7.102;2024-01-06T03:47:29;7.60;99.90
32446;DHT22;18899;50.748;7.102;2024-01-06T03:49:54;7.70;99.90
32446;DHT22;18899;50.748;7.102;2024-01-06T03:52:20;7.60;99.90
32446;DHT22;18899;50.748;7.102;2024-01-06T03:54:45;7.60;99.90
32446;DHT22;18899;50.748;7.102;2024-01-06T03:57:11;7.60;99.90
32446;DHT22;18899;50.748;7.102;2024-01-06T03:59:36;7.60;99.90
32446;DHT22;18899;50.748;7.102;2024-01-06T04:02:02;7.50;99.90
32446;DHT22;18899;50.748;7.102;2024-01-06T04:04:28;7.50;99.90
32446;DHT22;18899;50.748;7.102;2024-01-06T04:06:53;7.50;99.90
32446;DHT22;18899;50.748;7.102;2024-01-06T04:09:19;7.60;99.90
32446;DHT22;18899;50.748;7.102;2024-01-06T04:11:44;7.60;99.90
32446;DHT22;18899;50.748;7.102;2024-01-06T04:14:10;7.60;99.90
32446;DHT22;18899;50.748;7.102;2024-01-06T04:16:35;7.60;99.90
32446;DHT22;18899;50.748;7.102;2024-01-06T04:19:01;7.60;99.90
32446;DHT22;18899;50.748;7.102;2024-01-06T04:21:26;7.60;99.90
32446;DHT22;18899;50.748;7.102;2024-01-06T04:23:52;7.60;99.90
32446;DHT22;18899;50.748;7.102;2024-01-06T04:26:17;7.60;99.90
32446;DHT22;18899;50.748;7.102;2024-01-06T04:28:43;7.60;99.90
32446;DHT22;18899;50.748;7.102;2024-01-06T04:31:08;7.60;99.90
32446;DHT22;18899;50.748;7.102;2024-01-06T04:33:34;7.60;99.90
32446;DHT22;18899;50.748;7.102;2024-01-06T04:36:00;7.60;99.90
32446;DHT22;18899;50.748;7.102;2024-01-06T04:38:27;7.60;99.90
32446;DHT22;18899;50.748;7.102;2024-01-06T04:40:52;7.60;99.90
32446;DHT22;18899;50.748;7.102;2024-01-06T04:43:18;7.60;99.90
32446;DHT22;18899;50.748;7.102;2024-01-06T04:45:43;7.70;99.90
32446;DHT22;18899;50.748;7.102;2024-01-06T04:48:09;7.70;99.90
32446;DHT22;18899;50.748;7.102;2024-01-06T04:50:34;7.70;99.90
32446;DHT22;18899;50.748;7.102;2024-01-06T04:53:00;7.70;99.90
32446;DHT22;18899;50.748;7.102;2024-01-06T04:55:25;7.80;99.90
32446;DHT22;18899;50.748;7.102;2024-01-06T04:57:51;7.80;99.90
32446;DHT22;18899;50.748;7.102;2024-01-06T05:00:16;7.80;99.90
32446;DHT22;18899;50.748;7.102;2024-01-06T05:02:42;7.80;99.90
32446;DHT22;18899;50.748;7.102;2024-01-06T05:05:08;7.80;99.90
32446;DHT22;18899;50.748;7.102;2024-01-06T05:07:33;7.70;99.90
32446;DHT22;18899;50.748;7.102;2024-01-06T05:09:59;7.70;99.90
32446;DHT22;18899;50.748;7.102;2024-01-06T05:12:24;7.70;99.90
32446;DHT22;18899;50.748;7.102;2024-01-06T05:14:50;7.60;99.90
32446;DHT22;18899;50.748;7.102;2024-01-06T05:17:15;7.70;99.90
32446;DHT22;18899;50.748;7.102;2024-01-06T05:19:41;7.70;99.90
32446;DHT22;18899;50.748;7.102;2024-01-06T05:22:06;7.70;99.90
32446;DHT22;18899;50.748;7.102;2024-01-06T05:24:32;7.60;99.90
32446;DHT22;18899;50.748;7.102;2024-01-06T05:26:57;7.60;99.90
32446;DHT22;18899;50.748;7.102;2024-01-06T05:29:23;7.60;99.90
32446;DHT22;18899;50.748;7.102;2024-01-06T05:31:51;7.60;99.90
32446;DHT22;18899;50.748;7.102;2024-01-06T05:34:16;7.60;99.90
32446;DHT22;18899;50.748;7.102;2024-01-06T05:36:42;7.60;99.90
32446;DHT22;18899;50.748;7.102;2024-01-06T05:39:07;7.60;99.90
32446;DHT22;18899;50.748;7.102;2024-01-06T05:41:40;7.60;99.90
32446;DHT22;18899;50.748;7.102;2024-01-06T05:44:06;7.60;99.90
32446;DHT22;18899;50.748;7.102;2024-01-06T05:46:31;7.60;99.90
32446;DHT22;18899;50.748;7.102;2024-01-06T05:48:57;7.60;99.90
32446;DHT22;18899;50.748;7.102;2024-01-06T05:51:23;7.60;99.90
32446;DHT22;18899;50.748;7.102;2024-01-06T05:53:48;7.60;99.90
32446;DHT22;18899;50.748;7.102;2024-01-06T05:56:26;7.60;99.90
32446;DHT22;18899;50.748;7.102;2024-01-06T05:58:52;7.60;99.90
32446;DHT22;18899;50.748;7.102;2024-01-06T06:01:19;7.60;99.90
32446;DHT22;18899;50.748;7.102;2024-01-06T06:03:46;7.70;99.90
32446;DHT22;18899;50.748;7.102;2024-01-06T06:06:11;7.60;99.90
32446;DHT22;18899;50.748;7.102;2024-01-06T06:08:37;7.70;99.90
32446;DHT22;18899;50.748;7.102;2024-01-06T06:11:02;7.70;99.90
32446;DHT22;18899;50.748;7.102;2024-01-06T06:13:30;7.70;99.90
32446;DHT22;18899;50.748;7.102;2024-01-06T06:15:56;7.70;99.90
32446;DHT22;18899;50.748;7.102;2024-01-06T06:18:23;7.70;99.90
32446;DHT22;18899;50.748;7.102;2024-01-06T06:20:48;7.70;99.90
32446;DHT22;18899;50.748;7.102;2024-01-06T06:23:14;7.70;99.90
32446;DHT22;18899;50.748;7.102;2024-01-06T06:25:39;7.70;99.90
32446;DHT22;18899;50.748;7.102;2024-01-06T06:28:05;7.80;99.90
32446;DHT22;18899;50.748;7.102;2024-01-06T06:30:32;7.80;99.90
32446;DHT22;18899;50.748;7.102;2024-01-06T06:32:57;7.70;99.90
32446;DHT22;18899;50.748;7.102;2024-01-06T06:35:23;7.70;99.90
32446;DHT22;18899;50.748;7.102;2024-01-06T06:37:49;7.60;99.90
32446;DHT22;18899;50.748;7.102;2024-01-06T06:40:15;7.50;99.90
32446;DHT22;18899;50.748;7.102;2024-01-06T06:42:41;7.50;99.90
32446;DHT22;18899;50.748;7.102;2024-01-06T06:45:07;7.30;99.90
32446;DHT22;18899;50.748;7.102;2024-01-06T06:47:32;7.20;99.90
32446;DHT22;18899;50.748;7.102;2024-01-06T06:49:58;7.20;99.90
32446;DHT22;18899;50.748;7.102;2024-01-06T06:52:23;7.20;99.90
32446;DHT22;18899;50.748;7.102;2024-01-06T06:54:49;7.10;99.90
32446;DHT22;18899;50.748;7.102;2024-01-06T06:57:15;7.10;99.90
32446;DHT22;18899;50.748;7.102;2024-01-06T06:59:40;7.10;99.90
32446;DHT22;18899;50.748;7.102;2024-01-06T07:02:06;7.00;99.90
32446;DHT22;18899;50.748;7.102;2024-01-06T07:04:32;7.00;99.90
32446;DHT22;18899;50.748;7.102;2024-01-06T07:06:58;7.10;99.90
32446;DHT22;18899;50.748;7.102;2024-01-06T07:09:23;7.10;99.90
32446;DHT22;18899;50.748;7.102;2024-01-06T07:11:49;7.00;99.90
32446;DHT22;18899;50.748;7.102;2024-01-06T07:14:15;7.00;99.90
32446;DHT22;18899;50.748;7.102;2024-01-06T07:16:41;7.00;99.90
32446;DHT22;18899;50.748;7.102;2024-01-06T07:19:06;7.00;99.90
32446;DHT22;18899;50.748;7.102;2024-01-06T07:21:32;7.00;99.90
32446;DHT22;18899;50.748;7.102;2024-01-06T07:23:57;7.00;99.90
32446;DHT22;18899;50.748;7.102;2024-01-06T07:26:23;6.80;99.90
32446;DHT22;18899;50.748;7.102;2024-01-06T07:28:48;6.80;99.90
32446;DHT22;18899;50.748;7.102;2024-01-06T07:31:14;6.70;99.90
32446;DHT22;18899;50.748;7.102;2024-01-06T07:33:40;6.60;99.90
32446;DHT22;18899;50.748;7.102;2024-01-06T07:36:05;6.50;99.90
32446;DHT22;18899;50.748;7.102;2024-01-06T07:38:31;6.40;99.90
32446;DHT22;18899;50.748;7.102;2024-01-06T07:40:57;6.30;99.90
32446;DHT22;18899;50.748;7.102;2024-01-06T07:43:22;6.30;99.90
32446;DHT22;18899;50.748;7.102;2024-01-06T07:45:48;6.20;99.90
32446;DHT22;18899;50.748;7.102;2024-01-06T07:48:14;6.20;99.90
32446;DHT22;18899;50.748;7.102;2024-01-06T07:50:40;6.20;99.90
32446;DHT22;18899;50.748;7.102;2024-01-06T07:53:05;6.20;99.90
32446;DHT22;18899;50.748;7.102;2024-01-06T07:55:31;6.10;99.90
32446;DHT22;18899;50.748;7.102;2024-01-06T07:57:57;6.10;99.90
32446;DHT22;18899;50.748;7.102;2024-01-06T08:00:22;6.10;99.90
32446;DHT22;18899;50.748;7.102;2024-01-06T08:02:48;6.10;99.90
32446;DHT22;18899;50.748;7.102;2024-01-06T08:05:13;6.10;99.90
32446;DHT22;18899;50.748;7.102;2024-01-06T08:07:39;6.10;99.90
32446;DHT22;18899;50.748;7.102;2024-01-06T08:10:05;6.10;99.90
32446;DHT22;18899;50.748;7.102;2024-01-06T08:12:31;6.10;99.90
32446;DHT22;18899;50.748;7.102;2024-01-06T08:14:56;6.20;99.90
32446;DHT22;18899;50.748;7.102;2024-01-06T08:17:22;6.20;99.90
32446;DHT22;18899;50.748;7.102;2024-01-06T08:19:48;6.30;99.90
32446;DHT22;18899;50.748;7.102;2024-01-06T08:22:13;6.30;99.90
32446;DHT22;18899;50.748;7.102;2024-01-06T08:24:39;6.40;99.90
32446;DHT22;18899;50.748;7.102;2024-01-06T08:27:05;6.40;99.90
32446;DHT22;18899;50.748;7.102;2024-01-06T08:29:31;6.50;99.90
32446;DHT22;18899;50.748;7.102;2024-01-06T08:31:56;6.50;99.90
32446;DHT22;18899;50.748;7.102;2024-01-06T08:34:23;6.50;99.90
32446;DHT22;18899;50.748;7.102;2024-01-06T08:36:49;6.60;99.90
32446;DHT22;18899;50.748;7.102;2024-01-06T08:39:14;6.50;99.90
32446;DHT22;18899;50.748;7.102;2024-01-06T08:41:40;6.70;99.90
32446;DHT22;18899;50.748;7.102;2024-01-06T08:44:05;6.70;99.90
32446;DHT22;18899;50.748;7.102;2024-01-06T08:46:31;6.60;99.90
32446;DHT22;18899;50.748;7.102;2024-01-06T08:48:56;6.70;99.90
32446;DHT22;18899;50.748;7.102;2024-01-06T08:51:22;6.70;99.90
32446;DHT22;18899;50.748;7.102;2024-01-06T08:53:49;6.80;99.90
32446;DHT22;18899;50.748;7.102;2024-01-06T08:56:15;6.80;99.90
32446;DHT22;18899;50.748;7.102;2024-01-06T08:58:43;6.80;99.90
32446;DHT22;18899;50.748;7.102;2024-01-06T09:01:09;6.80;99.90
32446;DHT22;18899;50.748;7.102;2024-01-06T09:03:34;6.90;99.90
32446;DHT22;18899;50.748;7.102;2024-01-06T09:06:00;6.90;99.90
32446;DHT22;18899;50.748;7.102;2024-01-06T09:08:26;7.00;99.90
32446;DHT22;18899;50.748;7.102;2024-01-06T09:10:51;7.00;99.90
32446;DHT22;18899;50.748;7.102;2024-01-06T09:13:17;6.90;99.90
32446;DHT22;18899;50.748;7.102;2024-01-06T09:15:43;6.90;99.90
32446;DHT22;18899;50.748;7.102;2024-01-06T09:18:09;6.80;99.90
32446;DHT22;18899;50.748;7.102;2024-01-06T09:20:35;6.80;99.90
32446;DHT22;18899;50.748;7.102;2024-01-06T09:23:00;6.70;99.90
32446;DHT22;18899;50.748;7.102;2024-01-06T09:25:26;6.70;99.90
32446;DHT22;18899;50.748;7.102;2024-01-06T09:27:51;6.70;99.90
32446;DHT22;18899;50.748;7.102;2024-01-06T09:30:18;6.70;99.90
32446;DHT22;18899;50.748;7.102;2024-01-06T09:32:44;6.60;99.90
32446;DHT22;18899;50.748;7.102;2024-01-06T09:35:09;6.60;99.90
32446;DHT22;18899;50.748;7.102;2024-01-06T09:37:35;6.60;99.90
32446;DHT22;18899;50.748;7.102;2024-01-06T09:40:00;6.60;99.90
32446;DHT22;18899;50.748;7.102;2024-01-06T09:42:26;6.70;99.90
32446;DHT22;18899;50.748;7.102;2024-01-06T09:44:51;6.70;99.90
32446;DHT22;18899;50.748;7.102;2024-01-06T09:47:18;6.70;99.90
32446;DHT22;18899;50.748;7.102;2024-01-06T09:49:48;6.70;99.90
32446;DHT22;18899;50.748;7.102;2024-01-06T09:52:15;6.70;99.90
32446;DHT22;18899;50.748;7.102;2024-01-06T09:54:51;6.70;99.90
32446;DHT22;18899;50.748;7.102;2024-01-06T09:57:17;6.70;99.90
32446;DHT22;18899;50.748;7.102;2024-01-06T09:59:46;6.80;99.90
32446;DHT22;18899;50.748;7.102;2024-01-06T10:02:16;6.80;99.90
32446;DHT22;18899;50.748;7.102;2024-01-06T10:04:43;6.90;99.90
32446;DHT22;18899;50.748;7.102;2024-01-06T10:07:10;7.00;99.90
32446;DHT22;18899;50.748;7.102;2024-01-06T10:09:38;7.10;99.90
32446;DHT22;18899;50.748;7.102;2024-01-06T10:12:03;7.10;99.90
32446;DHT22;18899;50.748;7.102;2024-01-06T10:14:29;7.20;99.90
32446;DHT22;18899;50.748;7.102;2024-01-06T10:16:55;7.20;99.90
32446;DHT22;18899;50.748;7.102;2024-01-06T10:19:20;7.20;99.90
32446;DHT22;18899;50.748;7.102;2024-01-06T10:21:46;7.30;99.90
32446;DHT22;18899;50.748;7.102;2024-01-06T10:24:12;7.30;99.90
32446;DHT22;18899;50.748;7.102;2024-01-06T10:26:37;7.30;99.90
32446;DHT22;18899;50.748;7.102;2024-01-06T10:29:04;7.30;99.90
32446;DHT22;18899;50.748;7.102;2024-01-06T10:31:30;7.30;99.90
32446;DHT22;18899;50.748;7.102;2024-01-06T10:33:56;7.30;99.90
32446;DHT22;18899;50.748;7.102;2024-01-06T10:36:25;7.40;99.90
32446;DHT22;18899;50.748;7.102;2024-01-06T10:38:52;7.40;99.90
32446;DHT22;18899;50.748;7.102;2024-01-06T10:41:19;7.40;99.90
32446;DHT22;18899;50.748;7.102;2024-01-06T10:43:46;7.30;99.90
32446;DHT22;18899;50.748;7.102;2024-01-06T10:46:13;7.30;99.90
32446;DHT22;18899;50.748;7.102;2024-01-06T10:48:41;7.30;99.90
32446;DHT22;18899;50.748;7.102;2024-01-06T10:51:11;7.30;99.90
32446;DHT22;18899;50.748;7.102;2024-01-06T10:53:37;7.30;99.90
32446;DHT22;18899;50.748;7.102;2024-01-06T10:56:08;7.30;99.90
32446;DHT22;18899;50.748;7.102;2024-01-06T10:58:35;7.20;99.90
32446;DHT22;18899;50.748;7.102;2024-01-06T11:01:09;7.20;99.90
32446;DHT22;18899;50.748;7.102;2024-01-06T11:03:36;7.10;99.90
32446;DHT22;18899;50.748;7.102;2024-01-06T11:06:03;7.10;99.90
32446;DHT22;18899;50.748;7.102;2024-01-06T11:08:29;7.10;99.90
32446;DHT22;18899;50.748;7.102;2024-01-06T11:10:56;7.10;99.90
32446;DHT22;18899;50.748;7.102;2024-01-06T11:13:22;7.00;99.90
32446;DHT22;18899;50.748;7.102;2024-01-06T11:15:53;7.10;99.90
32446;DHT22;18899;50.748;7.102;2024-01-06T11:18:37;7.10;99.90
32446;DHT22;18899;50.748;7.102;2024-01-06T11:21:20;7.10;99.90
32446;DHT22;18899;50.748;7.102;2024-01-06T11:24:14;7.10;99.90
32446;DHT22;18899;50.748;7.102;2024-01-06T11:26:59;7.10;99.90
32446;DHT22;18899;50.748;7.102;2024-01-06T11:29:27;7.00;99.90
32446;DHT22;18899;50.748;7.102;2024-01-06T11:32:21;6.90;99.90
32446;DHT22;18899;50.748;7.102;2024-01-06T11:34:51;6.90;99.90
32446;DHT22;18899;50.748;7.102;2024-01-06T11:37:19;6.90;99.90
32446;DHT22;18899;50.748;7.102;2024-01-06T11:39:50;6.90;99.90
32446;DHT22;18899;50.748;7.102;2024-01-06T11:42:15;6.90;99.90
32446;DHT22;18899;50.748;7.102;2024-01-06T11:44:44;6.80;99.90
32446;DHT22;18899;50.748;7.102;2024-01-06T11:47:13;6.90;99.90
32446;DHT22;18899;50.748;7.102;2024-01-06T11:49:38;6.90;99.90
32446;DHT22;18899;50.748;7.102;2024-01-06T11:52:04;6.90;99.90
32446;DHT22;18899;50.748;7.102;2024-01-06T11:54:30;6.90;99.90
32446;DHT22;18899;50.748;7.102;2024-01-06T11:56:56;6.90;99.90
32446;DHT22;18899;50.748;7.102;2024-01-06T11:59:23;6.80;99.90
32446;DHT22;18899;50.748;7.102;2024-01-06T12:01:48;6.80;99.90
32446;DHT22;18899;50.748;7.102;2024-01-06T12:04:14;6.70;99.90
32446;DHT22;18899;50.748;7.102;2024-01-06T12:06:43;6.70;99.90
32446;DHT22;18899;50.748;7.102;2024-01-06T12:09:12;6.60;99.90
32446;DHT22;18899;50.748;7.102;2024-01-06T12:11:41;6.60;99.90
32446;DHT22;18899;50.748;7.102;2024-01-06T12:14:09;6.60;99.90
32446;DHT22;18899;50.748;7.102;2024-01-06T12:16:36;6.60;99.90
32446;DHT22;18899;50.748;7.102;2024-01-06T12:19:02;6.60;99.90
32446;DHT22;18899;50.748;7.102;2024-01-06T12:21:29;6.50;99.90
32446;DHT22;18899;50.748;7.102;2024-01-06T12:24:12;6.50;99.90
32446;DHT22;18899;50.748;7.102;2024-01-06T12:26:41;6.50;99.90
32446;DHT22;18899;50.748;7.102;2024-01-06T12:29:07;6.40;99.90
32446;DHT22;18899;50.748;7.102;2024-01-06T12:31:32;6.50;99.90
32446;DHT22;18899;50.748;7.102;2024-01-06T12:33:59;6.60;99.90
32446;DHT22;18899;50.748;7.102;2024-01-06T12:36:24;6.60;99.90
32446;DHT22;18899;50.748;7.102;2024-01-06T12:38:50;6.50;99.90
32446;DHT22;18899;50.748;7.102;2024-01-06T12:41:16;6.50;99.90
32446;DHT22;18899;50.748;7.102;2024-01-06T12:43:41;6.60;99.90
32446;DHT22;18899;50.748;7.102;2024-01-06T12:46:07;6.60;99.90
32446;DHT22;18899;50.748;7.102;2024-01-06T12:48:32;6.50;99.90
32446;DHT22;18899;50.748;7.102;2024-01-06T12:50:58;6.40;99.90
32446;DHT22;18899;50.748;7.102;2024-01-06T12:53:23;6.40;99.90
32446;DHT22;18899;50.748;7.102;2024-01-06T12:55:49;6.40;99.90
32446;DHT22;18899;50.748;7.102;2024-01-06T12:58:14;6.40;99.90
32446;DHT22;18899;50.748;7.102;2024-01-06T13:00:40;6.40;99.90
32446;DHT22;18899;50.748;7.102;2024-01-06T13:03:06;6.40;99.90
32446;DHT22;18899;50.748;7.102;2024-01-06T13:05:31;6.40;99.90
32446;DHT22;18899;50.748;7.102;2024-01-06T13:07:57;6.40;99.90
32446;DHT22;18899;50.748;7.102;2024-01-06T13:10:23;6.30;99.90
32446;DHT22;18899;50.748;7.102;2024-01-06T13:12:48;6.30;99.90
32446;DHT22;18899;50.748;7.102;2024-01-06T13:15:14;6.30;99.90
32446;DHT22;18899;50.748;7.102;2024-01-06T13:17:39;6.30;99.90
32446;DHT22;18899;50.748;7.102;2024-01-06T13:20:05;6.30;99.90
32446;DHT22;18899;50.748;7.102;2024-01-06T13:22:31;6.40;99.90
32446;DHT22;18899;50.748;7.102;2024-01-06T13:24:57;6.40;99.90
32446;DHT22;18899;50.748;7.102;2024-01-06T13:27:24;6.40;99.90
32446;DHT22;18899;50.748;7.102;2024-01-06T13:29:50;6.40;99.90
32446;DHT22;18899;50.748;7.102;2024-01-06T13:32:17;6.40;99.90
32446;DHT22;18899;50.748;7.102;2024-01-06T13:34:44;6.40;99.90
32446;DHT22;18899;50.748;7.102;2024-01-06T13:37:10;6.30;99.90
32446;DHT22;18899;50.748;7.102;2024-01-06T13:39:36;6.30;99.90
32446;DHT22;18899;50.748;7.102;2024-01-06T13:42:01;6.30;99.90
32446;DHT22;18899;50.748;7.102;2024-01-06T13:44:29;6.30;99.90
32446;DHT22;18899;50.748;7.102;2024-01-06T13:46:54;6.30;99.90
32446;DHT22;18899;50.748;7.102;2024-01-06T13:49:21;6.20;99.90
32446;DHT22;18899;50.748;7.102;2024-01-06T13:51:47;6.10;99.90
32446;DHT22;18899;50.748;7.102;2024-01-06T13:54:13;6.10;99.90
32446;DHT22;18899;50.748;7.102;2024-01-06T13:56:38;6.00;99.90
32446;DHT22;18899;50.748;7.102;2024-01-06T13:59:04;5.90;99.90
32446;DHT22;18899;50.748;7.102;2024-01-06T14:01:29;5.80;99.90
32446;DHT22;18899;50.748;7.102;2024-01-06T14:03:55;5.70;99.90
32446;DHT22;18899;50.748;7.102;2024-01-06T14:06:25;5.70;99.90
32446;DHT22;18899;50.748;7.102;2024-01-06T14:08:51;5.60;99.90
32446;DHT22;18899;50.748;7.102;2024-01-06T14:11:18;5.60;99.90
32446;DHT22;18899;50.748;7.102;2024-01-06T14:13:44;5.60;99.90
32446;DHT22;18899;50.748;7.102;2024-01-06T14:16:14;5.60;99.90
32446;DHT22;18899;50.748;7.102;2024-01-06T14:18:39;5.60;99.90
32446;DHT22;18899;50.748;7.102;2024-01-06T14:21:05;5.60;99.90
32446;DHT22;18899;50.748;7.102;2024-01-06T14:23:30;5.60;99.90
32446;DHT22;18899;50.748;7.102;2024-01-06T14:25:58;5.70;99.90
32446;DHT22;18899;50.748;7.102;2024-01-06T14:28:24;5.70;99.90
32446;DHT22;18899;50.748;7.102;2024-01-06T14:30:49;5.70;99.90
32446;DHT22;18899;50.748;7.102;2024-01-06T14:33:15;5.60;99.90
32446;DHT22;18899;50.748;7.102;2024-01-06T14:35:40;5.50;99.90
32446;DHT22;18899;50.748;7.102;2024-01-06T14:38:07;5.40;99.90
32446;DHT22;18899;50.748;7.102;2024-01-06T14:40:33;5.40;99.90
32446;DHT22;18899;50.748;7.102;2024-01-06T14:42:58;5.40;99.90
32446;DHT22;18899;50.748;7.102;2024-01-06T14:45:27;5.50;99.90
32446;DHT22;18899;50.748;7.102;2024-01-06T14:47:53;5.50;99.90
32446;DHT22;18899;50.748;7.102;2024-01-06T14:50:18;5.50;99.90
32446;DHT22;18899;50.748;7.102;2024-01-06T14:52:44;5.40;99.90
32446;DHT22;18899;50.748;7.102;2024-01-06T14:55:09;5.40;99.90
32446;DHT22;18899;50.748;7.102;2024-01-06T14:57:35;5.40;99.90
32446;DHT22;18899;50.748;7.102;2024-01-06T15:00:01;5.40;99.90
32446;DHT22;18899;50.748;7.102;2024-01-06T15:02:26;5.60;99.90
32446;DHT22;18899;50.748;7.102;2024-01-06T15:04:52;5.50;99.90
32446;DHT22;18899;50.748;7.102;2024-01-06T15:07:19;5.50;99.90
32446;DHT22;18899;50.748;7.102;2024-01-06T15:09:44;5.40;99.90
32446;DHT22;18899;50.748;7.102;2024-01-06T15:12:09;5.30;99.90
32446;DHT22;18899;50.748;7.102;2024-01-06T15:14:35;5.10;99.90
32446;DHT22;18899;50.748;7.102;2024-01-06T15:17:01;5.00;99.90
32446;DHT22;18899;50.748;7.102;2024-01-06T15:19:26;5.00;99.90
32446;DHT22;18899;50.748;7.102;2024-01-06T15:21:56;4.90;99.90
32446;DHT22;18899;50.748;7.102;2024-01-06T15:24:21;4.90;99.90
32446;DHT22;18899;50.748;7.102;2024-01-06T15:26:50;4.90;99.90
32446;DHT22;18899;50.748;7.102;2024-01-06T15:29:17;4.80;99.90
32446;DHT22;18899;50.748;7.102;2024-01-06T15:31:42;4.80;99.90
32446;DHT22;18899;50.748;7.102;2024-01-06T15:34:08;4.80;99.90
32446;DHT22;18899;50.748;7.102;2024-01-06T15:36:33;4.80;99.90
32446;DHT22;18899;50.748;7.102;2024-01-06T15:38:59;4.80;99.90